createdAt,value
2019-01-12T00:03:42.010Z,63.93
2019-01-12T00:08:48.433Z,62.90
2019-01-12T00:13:54.573Z,62.70
2019-01-12T00:19:01.413Z,61.32
2019-01-12T00:24:07.970Z,62.39
2019-01-12T00:29:14.568Z,62.91
2019-01-12T00:34:21.078Z,61.89
2019-01-12T00:39:27.636Z,62.32
2019-01-12T00:44:35.022Z,62.62
2019-01-12T00:49:41.607Z,62.06
2019-01-12T00:54:48.589Z,61.84
2019-01-12T00:59:55.658Z,61.69
2019-01-12T01:05:02.365Z,62.08
2019-01-12T01:10:17.107Z,61.88
2019-01-12T01:15:24.665Z,62.19
2019-01-12T01:20:34.153Z,62.36
2019-01-12T01:25:44.319Z,62.40
2019-01-12T01:30:50.976Z,61.82
2019-01-12T01:35:57.627Z,60.94
2019-01-12T01:41:04.696Z,62.10
2019-01-12T01:46:12.182Z,60.85
2019-01-12T01:51:18.616Z,62.08
2019-01-12T01:56:25.319Z,61.06
2019-01-12T02:01:32.955Z,61.68
2019-01-12T02:06:44.859Z,61.94
2019-01-12T02:11:51.798Z,61.83
2019-01-12T02:16:58.285Z,61.78
2019-01-12T02:22:07.151Z,61.48
2019-01-12T02:27:13.854Z,61.91
2019-01-12T02:32:20.556Z,60.22
2019-01-12T02:37:27.113Z,61.12
2019-01-12T02:42:33.374Z,61.73
2019-01-12T02:47:39.574Z,61.34
2019-01-12T02:52:46.379Z,61.38
2019-01-12T02:57:53.935Z,60.87
2019-01-12T03:03:00.839Z,61.30
2019-01-12T03:08:07.354Z,61.56
2019-01-12T03:13:14.022Z,61.37
2019-01-12T03:18:20.655Z,60.28
2019-01-12T03:23:27.278Z,61.10
2019-01-12T03:28:33.516Z,62.96
2019-01-12T03:33:40.530Z,62.54
2019-01-12T03:38:47.666Z,62.54
2019-01-12T03:43:54.623Z,62.63
2019-01-12T03:49:00.944Z,61.44
2019-01-12T03:54:08.374Z,63.35
2019-01-12T03:59:15.191Z,62.32
2019-01-12T04:04:21.371Z,62.66
2019-01-12T04:09:28.689Z,61.32
2019-01-12T04:14:35.415Z,63.13
2019-01-12T04:19:41.857Z,62.55
2019-01-12T04:24:48.032Z,62.29
2019-01-12T04:29:53.845Z,62.14
2019-01-12T04:35:00.249Z,63.17
2019-01-12T04:40:12.736Z,62.02
2019-01-12T04:45:21.621Z,61.43
2019-01-12T04:50:28.200Z,62.03
2019-01-12T04:55:41.247Z,61.88
2019-01-12T05:00:43.495Z,61.12
2019-01-12T05:05:51.375Z,60.50
2019-01-12T05:10:58.010Z,61.57
2019-01-12T05:16:05.721Z,59.47
2019-01-12T05:21:13.543Z,60.21
2019-01-12T05:26:20.329Z,60.70
2019-01-12T05:31:27.435Z,59.72
2019-01-12T05:36:34.281Z,59.65
2019-01-12T05:41:41.881Z,60.00
2019-01-12T05:46:48.699Z,59.67
2019-01-12T05:51:55.254Z,58.74
2019-01-12T05:57:01.392Z,58.26
2019-01-12T06:02:08.353Z,58.15
2019-01-12T06:07:14.869Z,57.51
2019-01-12T06:12:21.579Z,57.20
2019-01-12T06:17:29.524Z,57.03
2019-01-12T06:22:36.388Z,57.98
2019-01-12T06:27:43.778Z,58.06
2019-01-12T06:32:50.573Z,56.96
2019-01-12T06:37:57.813Z,56.96
2019-01-12T06:43:03.714Z,56.53
2019-01-12T06:48:09.531Z,56.69
2019-01-12T06:53:15.396Z,56.26
2019-01-12T06:58:23.391Z,56.28
2019-01-12T07:03:30.196Z,55.68
2019-01-12T07:08:36.035Z,55.39
2019-01-12T07:13:42.773Z,55.35
2019-01-12T07:18:48.468Z,55.40
2019-01-12T07:23:58.116Z,57.62
2019-01-12T07:29:05.279Z,58.38
2019-01-12T07:34:13.261Z,58.27
2019-01-12T07:39:19.078Z,58.27
2019-01-12T07:44:24.892Z,60.80
2019-01-12T07:49:34.829Z,63.22
2019-01-12T07:54:40.984Z,62.29
2019-01-12T07:59:46.844Z,61.23
2019-01-12T08:04:54.314Z,62.01
2019-01-12T08:10:00.728Z,61.24
2019-01-12T08:15:08.102Z,63.66
2019-01-12T08:20:15.307Z,62.62
2019-01-12T08:25:24.387Z,63.33
2019-01-12T08:30:30.561Z,62.38
2019-01-12T08:35:38.157Z,62.91
2019-01-12T08:40:44.520Z,61.47
2019-01-12T08:45:50.823Z,61.38
2019-01-12T08:50:57.564Z,61.14
2019-01-12T08:56:04.886Z,61.99
2019-01-12T09:01:11.612Z,65.90
2019-01-12T09:06:17.931Z,65.58
2019-01-12T09:11:24.492Z,66.10
2019-01-12T09:16:31.845Z,66.32
2019-01-12T09:21:38.281Z,67.39
2019-01-12T09:26:45.102Z,67.23
2019-01-12T09:31:52.130Z,66.24
2019-01-12T09:36:59.767Z,68.39
2019-01-12T09:42:07.484Z,68.08
2019-01-12T09:47:16.033Z,68.78
2019-01-12T09:52:25.347Z,68.13
2019-01-12T09:57:31.857Z,68.17
2019-01-12T10:02:41.433Z,68.39
2019-01-12T10:07:48.324Z,68.17
2019-01-12T10:12:55.194Z,67.61
2019-01-12T10:18:01.949Z,67.65
2019-01-12T10:23:09.726Z,66.69
2019-01-12T10:28:16.816Z,67.71
2019-01-12T10:33:24.029Z,66.73
2019-01-12T10:38:31.989Z,66.86
2019-01-12T10:43:39.059Z,67.92
2019-01-12T10:48:46.063Z,68.25
2019-01-12T10:53:53.068Z,67.83
2019-01-12T10:59:01.141Z,66.34
2019-01-12T11:04:08.728Z,67.87
2019-01-12T11:09:16.468Z,67.31
2019-01-12T11:14:23.555Z,66.05
2019-01-12T11:19:30.959Z,66.00
2019-01-12T11:24:39.271Z,66.26
2019-01-12T11:29:47.615Z,65.06
2019-01-12T11:34:54.585Z,66.20
2019-01-12T11:40:01.651Z,65.64
2019-01-12T11:45:09.431Z,66.38
2019-01-12T11:50:17.802Z,66.27
2019-01-12T11:55:24.943Z,65.24
2019-01-12T12:00:32.507Z,66.63
2019-01-12T12:05:39.689Z,66.44
2019-01-12T12:10:47.176Z,66.24
2019-01-12T12:15:54.833Z,64.20
2019-01-12T12:21:00.908Z,64.15
2019-01-12T12:26:07.808Z,65.33
2019-01-12T12:31:15.539Z,63.05
2019-01-12T12:36:22.568Z,63.01
2019-01-12T12:41:29.383Z,62.09
2019-01-12T12:46:35.646Z,62.72
2019-01-12T12:51:41.937Z,62.42
2019-01-12T12:56:50.238Z,61.40
2019-01-12T13:01:57.569Z,62.43
2019-01-12T13:07:04.396Z,63.14
2019-01-12T13:12:11.592Z,62.82
2019-01-12T13:17:18.998Z,62.42
2019-01-12T13:22:26.883Z,61.11
2019-01-12T13:27:39.829Z,61.15
2019-01-12T13:32:43.610Z,60.83
2019-01-12T13:37:51.052Z,60.27
2019-01-12T13:42:58.740Z,59.69
2019-01-12T13:48:05.165Z,60.54
2019-01-12T13:53:11.828Z,60.82
2019-01-12T13:58:20.199Z,61.70
2019-01-12T14:03:27.549Z,63.02
2019-01-12T14:08:33.752Z,63.39
2019-01-12T14:13:39.694Z,64.94
2019-01-12T14:18:45.675Z,65.58
2019-01-12T14:23:51.256Z,65.31
2019-01-12T14:28:59.386Z,66.81
2019-01-12T14:34:07.432Z,66.34
2019-01-12T14:39:13.180Z,67.74
2019-01-12T14:44:19.388Z,66.91
2019-01-12T14:49:25.558Z,67.54
2019-01-12T14:54:31.205Z,66.93
2019-01-12T14:59:36.805Z,67.24
2019-01-12T15:04:42.736Z,68.57
2019-01-12T15:09:48.670Z,67.92
2019-01-12T15:14:54.952Z,67.50
2019-01-12T15:20:01.152Z,68.80
2019-01-12T15:25:09.756Z,69.25
2019-01-12T15:30:18.165Z,69.39
2019-01-12T15:35:26.238Z,69.66
2019-01-12T15:40:31.876Z,70.28
2019-01-12T15:45:37.663Z,68.62
2019-01-12T15:50:45.357Z,69.31
2019-01-12T15:55:50.979Z,69.64
2019-01-12T16:00:56.809Z,69.36
2019-01-12T16:06:02.588Z,71.00
2019-01-12T16:11:08.989Z,70.66
2019-01-12T16:16:15.034Z,71.12
2019-01-12T16:21:21.211Z,70.56
2019-01-12T16:26:28.051Z,70.66
2019-01-12T16:31:34.332Z,68.46
2019-01-12T16:36:40.217Z,69.58
2019-01-12T16:41:46.173Z,70.51
2019-01-12T16:46:51.727Z,70.10
2019-01-12T16:51:57.297Z,70.34
2019-01-12T16:57:02.857Z,69.14
2019-01-12T17:02:08.418Z,69.87
2019-01-12T17:07:13.976Z,69.98
2019-01-12T17:12:19.727Z,69.15
2019-01-12T17:17:25.450Z,70.38
2019-01-12T17:22:31.845Z,71.47
2019-01-12T17:27:37.766Z,70.87
2019-01-12T17:32:43.857Z,71.62
2019-01-12T17:37:50.207Z,71.51
2019-01-12T17:42:57.666Z,71.11
2019-01-12T17:48:03.242Z,72.11
2019-01-12T17:53:08.868Z,71.76
2019-01-12T17:58:14.821Z,71.78
2019-01-12T18:03:20.801Z,70.75
2019-01-12T18:08:26.366Z,71.89
2019-01-12T18:13:32.129Z,70.36
2019-01-12T18:18:40.240Z,71.76
2019-01-12T18:23:46.042Z,71.05
2019-01-12T18:28:52.519Z,70.12
2019-01-12T18:33:58.177Z,70.75
2019-01-12T18:39:05.243Z,70.69
2019-01-12T18:44:10.999Z,69.57
2019-01-12T18:49:16.862Z,69.53
2019-01-12T18:54:22.629Z,70.37
2019-01-12T18:59:28.995Z,69.28
2019-01-12T19:04:34.628Z,70.85
2019-01-12T19:09:42.079Z,69.46
2019-01-12T19:14:48.027Z,69.83
2019-01-12T19:19:53.576Z,69.71
2019-01-12T19:25:00.089Z,69.72
2019-01-12T19:30:16.984Z,69.02
2019-01-12T19:35:23.228Z,69.16
2019-01-12T19:40:29.020Z,69.22
2019-01-12T19:45:34.722Z,69.65
2019-01-12T19:50:43.515Z,67.86
2019-01-12T19:55:49.494Z,68.05
2019-01-12T20:00:55.176Z,68.30
2019-01-12T20:06:01.078Z,67.55
2019-01-12T20:11:07.015Z,68.15
2019-01-12T20:16:13.091Z,67.31
2019-01-12T20:21:19.164Z,67.97
2019-01-12T20:26:26.869Z,67.94
2019-01-12T20:31:45.727Z,67.58
2019-01-12T20:37:15.065Z,67.81
2019-01-12T20:42:24.141Z,68.72
2019-01-12T20:47:41.607Z,67.69
2019-01-12T20:53:15.290Z,67.50
2019-01-12T20:58:38.763Z,68.16
2019-01-12T21:04:04.289Z,68.22
2019-01-12T21:09:16.690Z,67.36
2019-01-12T21:14:31.889Z,67.81
2019-01-12T21:19:37.491Z,67.62
2019-01-12T21:24:43.475Z,68.45
2019-01-12T21:29:49.430Z,68.73
2019-01-12T21:34:58.350Z,67.87
2019-01-12T21:40:08.359Z,68.13
2019-01-12T21:45:15.441Z,67.86
2019-01-12T21:50:21.206Z,68.04
2019-01-12T21:55:26.756Z,68.97
2019-01-12T22:00:32.423Z,69.42
2019-01-12T22:05:38.158Z,69.39
2019-01-12T22:10:44.674Z,69.97
2019-01-12T22:15:50.350Z,67.90
2019-01-12T22:20:55.903Z,69.46
2019-01-12T22:26:04.571Z,69.21
2019-01-12T22:31:10.741Z,68.50
2019-01-12T22:36:16.506Z,69.90
2019-01-12T22:41:23.743Z,69.67
2019-01-12T22:46:29.299Z,69.94
2019-01-12T22:51:34.857Z,68.80
2019-01-12T22:56:40.612Z,69.05
2019-01-12T23:01:48.490Z,68.45
2019-01-12T23:06:54.404Z,69.41
2019-01-12T23:12:00.417Z,69.29
2019-01-12T23:17:06.315Z,69.32
2019-01-12T23:22:13.386Z,68.11
2019-01-12T23:27:19.157Z,68.83
2019-01-12T23:32:25.151Z,67.73
2019-01-12T23:37:30.685Z,67.19
2019-01-12T23:42:36.317Z,67.99
2019-01-12T23:47:42.184Z,66.48
2019-01-12T23:52:47.747Z,66.13
2019-01-12T23:57:53.471Z,65.22
